createdAt,value
2019-04-30T00:00:38.182Z,10.78
2019-04-30T00:03:11.478Z,10.45
2019-04-30T00:05:44.986Z,10.58
2019-04-30T00:08:16.046Z,10.08
2019-04-30T00:10:47.016Z,10.40
2019-04-30T00:13:20.818Z,9.88
2019-04-30T00:15:52.726Z,9.80
2019-04-30T00:18:22.428Z,10.48
2019-04-30T00:20:55.180Z,11.03
2019-04-30T00:23:27.225Z,10.53
2019-04-30T00:25:59.762Z,10.32
2019-04-30T00:28:29.549Z,10.43
2019-04-30T00:31:00.229Z,9.50
2019-04-30T00:33:31.001Z,10.60
2019-04-30T00:36:01.752Z,10.48
2019-04-30T00:38:36.101Z,9.58
2019-04-30T00:41:06.873Z,9.53
2019-04-30T00:43:37.654Z,10.20
2019-04-30T00:46:09.386Z,8.58
2019-04-30T00:48:40.129Z,8.43
2019-04-30T00:51:17.886Z,9.00
2019-04-30T00:53:43.851Z,8.60
2019-04-30T00:56:15.796Z,8.65
2019-04-30T00:58:47.845Z,8.38
2019-04-30T01:01:20.175Z,7.83
2019-04-30T01:04:05.123Z,7.60
2019-04-30T01:06:35.906Z,8.38
2019-04-30T01:09:08.602Z,7.12
2019-04-30T01:11:39.805Z,7.78
2019-04-30T01:14:11.026Z,8.03
2019-04-30T01:16:41.657Z,8.35
2019-04-30T01:19:26.593Z,8.08
2019-04-30T01:21:47.339Z,7.87
2019-04-30T01:24:18.915Z,7.53
2019-04-30T01:26:50.534Z,7.12
2019-04-30T01:29:21.552Z,7.03
2019-04-30T01:31:52.241Z,7.37
2019-04-30T01:34:23.032Z,6.80
2019-04-30T01:36:53.848Z,6.15
2019-04-30T01:39:28.507Z,5.92
2019-04-30T01:41:58.583Z,6.67
2019-04-30T01:44:29.502Z,6.30
2019-04-30T01:47:00.285Z,6.03
2019-04-30T01:49:41.739Z,6.67
2019-04-30T01:52:03.304Z,6.97
2019-04-30T01:54:34.096Z,6.33
2019-04-30T01:57:06.897Z,6.47
2019-04-30T02:00:07.194Z,6.72
2019-04-30T02:02:39.536Z,6.75
2019-04-30T02:05:10.440Z,6.70
2019-04-30T02:07:41.025Z,6.40
2019-04-30T02:10:12.028Z,6.47
2019-04-30T02:12:42.704Z,5.90
2019-04-30T02:15:14.169Z,6.60
2019-04-30T02:17:45.097Z,6.65
2019-04-30T02:20:18.884Z,6.80
2019-04-30T02:22:49.674Z,6.87
2019-04-30T02:25:20.378Z,6.60
2019-04-30T02:27:51.098Z,6.55
2019-04-30T02:30:21.865Z,7.20
2019-04-30T02:32:52.826Z,6.58
2019-04-30T02:35:41.191Z,6.42
2019-04-30T02:38:13.297Z,6.90
2019-04-30T02:40:44.121Z,6.37
2019-04-30T02:43:15.362Z,5.92
2019-04-30T02:45:49.875Z,6.10
2019-04-30T02:48:22.682Z,6.15
2019-04-30T02:50:54.585Z,5.33
2019-04-30T02:53:53.101Z,5.58
2019-04-30T02:56:26.812Z,6.30
2019-04-30T02:59:03.213Z,6.30
2019-04-30T03:01:31.450Z,6.10
2019-04-30T03:04:02.249Z,6.42
2019-04-30T03:06:32.920Z,6.10
2019-04-30T03:09:03.749Z,6.37
2019-04-30T03:11:34.597Z,6.30
2019-04-30T03:14:05.491Z,6.20
2019-04-30T03:16:39.961Z,5.17
2019-04-30T03:19:11.072Z,5.70
2019-04-30T03:21:50.225Z,5.60
2019-04-30T03:24:21.591Z,5.00
2019-04-30T03:26:52.256Z,5.25
2019-04-30T03:29:24.001Z,5.58
2019-04-30T03:31:55.076Z,6.28
2019-04-30T03:34:26.417Z,6.62
2019-04-30T03:37:01.616Z,5.47
2019-04-30T03:39:33.831Z,5.20
2019-04-30T03:42:03.901Z,5.10
2019-04-30T03:44:39.695Z,5.75
2019-04-30T03:47:10.893Z,5.63
2019-04-30T03:49:41.384Z,7.08
2019-04-30T03:52:32.302Z,6.80
2019-04-30T03:55:03.157Z,6.85
2019-04-30T03:57:33.902Z,6.87
2019-04-30T04:00:05.603Z,6.50
2019-04-30T04:02:40.868Z,6.05
2019-04-30T04:07:49.821Z,6.17
2019-04-30T04:10:26.483Z,6.05
2019-04-30T04:12:59.596Z,5.70
2019-04-30T04:15:29.901Z,6.10
2019-04-30T04:18:00.822Z,6.22
2019-04-30T04:20:31.601Z,5.70
2019-04-30T04:23:02.753Z,5.47
2019-04-30T04:25:33.677Z,5.35
2019-04-30T04:28:04.474Z,6.10
2019-04-30T04:30:35.140Z,5.53
2019-04-30T04:33:05.804Z,6.20
2019-04-30T04:35:36.580Z,6.00
2019-04-30T04:38:12.034Z,5.58
2019-04-30T04:40:40.015Z,5.75
2019-04-30T04:43:11.059Z,5.37
2019-04-30T04:45:43.808Z,6.37
2019-04-30T04:48:13.764Z,5.65
2019-04-30T04:50:44.560Z,5.35
2019-04-30T04:53:15.228Z,4.70
2019-04-30T04:55:45.915Z,5.92
2019-04-30T04:58:16.581Z,4.80
2019-04-30T05:00:49.496Z,5.78
2019-04-30T05:03:21.250Z,5.15
2019-04-30T05:05:51.979Z,6.15
2019-04-30T05:08:22.711Z,5.85
2019-04-30T05:10:53.432Z,6.50
2019-04-30T05:13:24.297Z,6.50
2019-04-30T05:15:55.020Z,6.30
2019-04-30T05:18:25.863Z,6.50
2019-04-30T05:20:56.611Z,6.15
2019-04-30T05:23:29.664Z,5.95
2019-04-30T05:25:59.975Z,5.90
2019-04-30T05:28:30.606Z,5.65
2019-04-30T05:31:01.120Z,5.65
2019-04-30T05:33:31.569Z,5.53
2019-04-30T05:36:02.299Z,5.67
2019-04-30T05:38:32.930Z,6.10
2019-04-30T05:41:03.779Z,6.20
2019-04-30T05:43:34.503Z,5.80
2019-04-30T05:46:05.224Z,5.80
2019-04-30T05:48:36.006Z,5.92
2019-04-30T05:51:06.680Z,6.00
2019-04-30T05:53:39.207Z,5.47
2019-04-30T05:56:09.628Z,5.75
2019-04-30T05:58:40.363Z,5.35
2019-04-30T06:01:11.288Z,5.05
2019-04-30T06:03:41.852Z,5.05
2019-04-30T06:06:12.518Z,5.08
2019-04-30T06:08:44.535Z,5.45
2019-04-30T06:11:16.435Z,5.17
2019-04-30T06:13:49.145Z,5.00
2019-04-30T06:16:21.420Z,5.03
2019-04-30T06:18:51.798Z,5.55
2019-04-30T06:21:22.536Z,4.85
2019-04-30T06:23:53.329Z,5.00
2019-04-30T06:26:24.277Z,4.78
2019-04-30T06:28:54.823Z,4.80
2019-04-30T06:31:32.217Z,5.00
2019-04-30T06:33:58.627Z,5.03
2019-04-30T06:36:29.452Z,5.25
2019-04-30T06:39:00.236Z,5.40
2019-04-30T06:41:30.943Z,4.78
2019-04-30T06:44:01.766Z,3.70
2019-04-30T06:46:32.639Z,4.62
2019-04-30T06:49:04.123Z,4.20
2019-04-30T06:51:34.611Z,4.60
2019-04-30T06:54:05.282Z,5.30
2019-04-30T06:56:35.951Z,4.55
2019-04-30T06:59:06.702Z,4.90
2019-04-30T07:01:38.776Z,4.42
2019-04-30T07:04:10.466Z,4.55
2019-04-30T07:06:44.162Z,4.45
2019-04-30T07:09:26.651Z,4.08
2019-04-30T07:12:00.369Z,5.97
2019-04-30T07:17:30.887Z,4.97
2019-04-30T07:20:01.702Z,5.10
2019-04-30T07:22:39.800Z,4.15
2019-04-30T07:25:04.504Z,4.30
2019-04-30T07:27:35.473Z,4.25
2019-04-30T07:30:06.670Z,4.87
2019-04-30T07:32:38.689Z,4.67
2019-04-30T07:35:09.755Z,5.25
2019-04-30T07:37:40.503Z,5.03
2019-04-30T07:40:11.364Z,4.58
2019-04-30T07:42:44.910Z,4.47
2019-04-30T07:45:14.078Z,4.80
2019-04-30T07:47:44.762Z,5.53
2019-04-30T07:50:16.794Z,5.35
2019-04-30T07:53:01.884Z,4.65
2019-04-30T07:55:19.962Z,5.53
2019-04-30T07:57:50.852Z,5.58
2019-04-30T08:00:21.660Z,4.97
2019-04-30T08:02:56.842Z,5.42
2019-04-30T08:05:31.595Z,5.40
2019-04-30T08:08:16.701Z,5.03
2019-04-30T08:10:54.584Z,4.67
2019-04-30T08:13:25.759Z,4.25
2019-04-30T08:15:56.813Z,4.35
2019-04-30T08:18:29.413Z,4.75
2019-04-30T08:21:00.962Z,5.15
2019-04-30T08:23:36.937Z,4.92
2019-04-30T08:26:03.840Z,4.47
2019-04-30T08:28:34.962Z,4.50
2019-04-30T08:31:05.629Z,4.80
2019-04-30T08:33:36.326Z,4.37
2019-04-30T08:36:07.018Z,4.53
2019-04-30T08:38:39.341Z,4.53
2019-04-30T08:41:09.905Z,4.33
2019-04-30T08:43:41.772Z,4.53
2019-04-30T08:46:12.539Z,4.90
2019-04-30T08:48:50.399Z,5.28
2019-04-30T08:51:15.416Z,5.05
2019-04-30T08:53:46.155Z,4.20
2019-04-30T08:56:16.873Z,4.65
2019-04-30T08:58:49.083Z,4.40
2019-04-30T09:01:19.844Z,3.65
2019-04-30T09:03:51.317Z,3.80
2019-04-30T09:06:23.641Z,4.60
2019-04-30T09:08:54.588Z,4.53
2019-04-30T09:11:33.537Z,4.65
2019-04-30T09:13:58.504Z,4.30
2019-04-30T09:16:29.588Z,4.62
2019-04-30T09:19:00.520Z,4.30
2019-04-30T09:21:31.226Z,4.17
2019-04-30T09:24:01.899Z,4.30
2019-04-30T09:26:32.674Z,4.53
2019-04-30T09:29:03.604Z,3.80
2019-04-30T09:31:34.272Z,4.17
2019-04-30T09:34:15.325Z,3.95
2019-04-30T09:36:39.019Z,4.35
2019-04-30T09:39:09.436Z,4.62
2019-04-30T09:41:41.169Z,4.60
2019-04-30T09:44:11.948Z,4.62
2019-04-30T09:46:42.706Z,4.60
2019-04-30T09:49:13.394Z,5.08
2019-04-30T09:51:44.182Z,4.20
2019-04-30T09:54:15.184Z,4.45
2019-04-30T09:56:46.174Z,4.62
2019-04-30T09:59:18.805Z,3.90
2019-04-30T10:01:49.102Z,3.77
2019-04-30T10:04:20.566Z,3.70
2019-04-30T10:06:52.183Z,3.58
2019-04-30T10:09:22.950Z,3.40
2019-04-30T10:11:55.013Z,3.52
2019-04-30T10:14:25.761Z,3.08
2019-04-30T10:16:59.446Z,3.17
2019-04-30T10:19:30.029Z,3.08
2019-04-30T10:22:00.716Z,3.05
2019-04-30T10:24:31.310Z,3.30
2019-04-30T10:27:03.373Z,3.90
2019-04-30T10:29:34.528Z,3.33
2019-04-30T10:32:05.095Z,3.65
2019-04-30T10:34:35.822Z,3.08
2019-04-30T10:37:08.808Z,4.28
2019-04-30T10:39:39.041Z,3.40
2019-04-30T10:42:09.866Z,3.20
2019-04-30T10:44:40.547Z,2.90
2019-04-30T10:47:11.177Z,3.60
2019-04-30T10:49:41.710Z,3.62
2019-04-30T10:52:12.463Z,3.35
2019-04-30T10:54:43.402Z,3.92
2019-04-30T10:57:14.131Z,3.62
2019-04-30T10:59:44.691Z,3.92
2019-04-30T11:02:15.335Z,3.95
2019-04-30T11:04:46.127Z,4.10
2019-04-30T11:07:38.429Z,4.25
2019-04-30T11:10:20.583Z,4.05
2019-04-30T11:12:51.082Z,4.50
2019-04-30T11:15:21.787Z,4.60
2019-04-30T11:17:52.935Z,5.10
2019-04-30T11:20:23.869Z,6.00
2019-04-30T11:22:54.995Z,5.72
2019-04-30T11:25:26.377Z,5.67
2019-04-30T11:27:57.804Z,5.80
2019-04-30T11:30:29.677Z,5.40
2019-04-30T11:33:00.617Z,5.40
2019-04-30T11:35:31.262Z,5.70
2019-04-30T11:38:01.727Z,5.50
2019-04-30T11:40:37.128Z,6.03
2019-04-30T11:43:05.552Z,5.80
2019-04-30T11:45:58.693Z,6.12
2019-04-30T11:48:28.958Z,5.85
2019-04-30T11:50:59.585Z,6.08
2019-04-30T11:53:30.752Z,6.10
2019-04-30T11:56:01.317Z,5.83
2019-04-30T11:58:31.716Z,6.15
2019-04-30T12:01:02.660Z,8.18
2019-04-30T12:03:33.287Z,5.97
2019-04-30T12:06:03.940Z,5.50
2019-04-30T12:08:39.285Z,5.55
2019-04-30T12:11:11.575Z,5.55
2019-04-30T12:13:42.298Z,5.62
2019-04-30T12:16:12.979Z,6.22
2019-04-30T12:18:43.689Z,6.00
2019-04-30T12:21:14.367Z,5.97
2019-04-30T12:23:44.991Z,5.85
2019-04-30T12:26:15.683Z,5.95
2019-04-30T12:28:46.474Z,6.05
2019-04-30T12:31:18.713Z,5.62
2019-04-30T12:33:49.442Z,6.00
2019-04-30T12:36:20.134Z,5.80
2019-04-30T12:38:50.793Z,5.78
2019-04-30T12:41:21.412Z,5.97
2019-04-30T12:43:52.122Z,6.17
2019-04-30T12:46:22.809Z,6.67
2019-04-30T12:48:54.891Z,5.67
2019-04-30T12:51:27.115Z,6.12
2019-04-30T12:54:02.374Z,6.03
2019-04-30T12:56:37.531Z,6.25
2019-04-30T12:59:08.462Z,6.72
2019-04-30T13:01:39.891Z,6.53
2019-04-30T13:04:10.800Z,6.50
2019-04-30T13:06:41.478Z,6.22
2019-04-30T13:09:12.803Z,6.60
2019-04-30T13:11:44.694Z,6.58
2019-04-30T13:14:16.336Z,6.55
2019-04-30T13:16:48.960Z,6.45
2019-04-30T13:19:19.616Z,6.85
2019-04-30T13:21:50.152Z,6.58
2019-04-30T13:24:20.886Z,6.85
2019-04-30T13:26:51.688Z,6.75
2019-04-30T13:29:35.855Z,6.87
2019-04-30T13:32:08.636Z,6.75
2019-04-30T13:34:43.962Z,7.03
2019-04-30T13:37:14.842Z,7.17
2019-04-30T13:39:53.322Z,6.78
2019-04-30T13:42:38.997Z,7.00
2019-04-30T13:45:10.050Z,7.10
2019-04-30T13:47:40.891Z,7.00
2019-04-30T13:50:11.854Z,7.45
2019-04-30T13:52:42.462Z,7.28
2019-04-30T13:55:42.891Z,7.22
2019-04-30T13:58:05.713Z,7.10
2019-04-30T14:00:36.507Z,7.42
2019-04-30T14:03:11.613Z,7.25
2019-04-30T14:05:42.240Z,6.70
2019-04-30T14:08:17.182Z,6.87
2019-04-30T14:10:49.329Z,6.58
2019-04-30T14:13:20.477Z,7.00
2019-04-30T14:15:53.150Z,6.72
2019-04-30T14:18:30.713Z,7.62
2019-04-30T14:20:55.967Z,7.80
2019-04-30T14:23:28.622Z,7.37
2019-04-30T14:26:00.857Z,7.50
2019-04-30T14:28:31.208Z,8.25
2019-04-30T14:31:01.992Z,8.18
2019-04-30T14:33:33.241Z,7.92
2019-04-30T14:36:04.015Z,7.95
2019-04-30T14:38:34.603Z,7.58
2019-04-30T14:41:05.477Z,8.15
2019-04-30T14:43:42.008Z,8.15
2019-04-30T14:46:30.540Z,7.70
2019-04-30T14:49:10.439Z,7.50
2019-04-30T14:51:41.115Z,8.23
2019-04-30T14:54:19.965Z,8.15
2019-04-30T14:56:55.196Z,8.50
2019-04-30T14:59:42.542Z,7.95
2019-04-30T15:02:23.266Z,7.72
2019-04-30T15:04:54.244Z,7.70
2019-04-30T15:07:24.920Z,7.40
2019-04-30T15:09:55.711Z,8.05
2019-04-30T15:12:26.427Z,7.65
2019-04-30T15:14:59.067Z,7.90
2019-04-30T15:17:31.206Z,7.47
2019-04-30T15:20:01.849Z,7.35
2019-04-30T15:22:32.799Z,8.18
2019-04-30T15:25:03.495Z,7.78
2019-04-30T15:27:34.178Z,7.75
2019-04-30T15:30:06.074Z,8.33
2019-04-30T15:32:39.588Z,8.15
2019-04-30T15:35:10.872Z,7.62
2019-04-30T15:37:43.040Z,8.23
2019-04-30T15:40:13.826Z,8.05
2019-04-30T15:42:46.422Z,8.00
2019-04-30T15:45:19.158Z,8.35
2019-04-30T15:47:49.911Z,8.78
2019-04-30T15:50:40.794Z,8.00
2019-04-30T15:53:11.531Z,7.05
2019-04-30T15:55:41.913Z,5.72
2019-04-30T15:58:14.147Z,4.15
2019-04-30T16:00:44.986Z,4.30
2019-04-30T16:03:17.141Z,5.50
2019-04-30T16:05:49.572Z,5.70
2019-04-30T16:08:25.116Z,8.28
2019-04-30T16:10:58.523Z,8.60
2019-04-30T16:13:33.997Z,7.08
2019-04-30T16:16:05.095Z,3.58
2019-04-30T16:18:49.523Z,4.47
2019-04-30T16:21:20.424Z,5.17
2019-04-30T16:23:51.198Z,5.80
2019-04-30T16:26:22.595Z,5.03
2019-04-30T16:28:53.975Z,4.60
2019-04-30T16:31:24.663Z,5.12
2019-04-30T16:33:56.150Z,6.03
2019-04-30T16:36:29.030Z,5.35
2019-04-30T16:39:00.140Z,5.62
2019-04-30T16:41:32.069Z,6.05
2019-04-30T16:44:03.410Z,6.05
2019-04-30T16:46:33.971Z,6.67
2019-04-30T16:49:05.412Z,6.17
2019-04-30T16:51:39.143Z,6.17
2019-04-30T16:54:10.018Z,6.03
2019-04-30T16:56:40.853Z,6.12
2019-04-30T16:59:13.640Z,5.75
2019-04-30T17:01:56.353Z,6.08
2019-04-30T17:04:19.182Z,5.95
2019-04-30T17:06:51.412Z,6.00
2019-04-30T17:09:29.602Z,5.92
2019-04-30T17:12:08.679Z,6.25
2019-04-30T17:14:42.039Z,5.58
2019-04-30T17:17:12.822Z,5.87
2019-04-30T17:19:43.507Z,5.28
2019-04-30T17:22:15.614Z,5.47
2019-04-30T17:24:48.981Z,5.53
2019-04-30T17:27:21.992Z,5.55
2019-04-30T17:29:52.194Z,5.15
2019-04-30T17:32:23.043Z,5.60
2019-04-30T17:34:53.714Z,5.62
2019-04-30T17:37:25.583Z,5.30
2019-04-30T17:39:56.324Z,5.60
2019-04-30T17:42:26.899Z,5.42
2019-04-30T17:44:59.425Z,5.50
2019-04-30T17:47:30.508Z,5.67
2019-04-30T17:50:01.873Z,4.90
2019-04-30T17:52:32.494Z,5.22
2019-04-30T17:55:03.898Z,4.90
2019-04-30T17:57:40.245Z,5.30
2019-04-30T18:00:18.947Z,5.45
2019-04-30T18:02:46.301Z,5.20
2019-04-30T18:05:19.500Z,4.87
2019-04-30T18:07:50.686Z,5.28
2019-04-30T18:10:22.604Z,5.28
2019-04-30T18:12:53.531Z,5.00
2019-04-30T18:15:26.174Z,5.10
2019-04-30T18:18:17.423Z,4.97
2019-04-30T18:20:56.938Z,5.78
2019-04-30T18:23:33.104Z,6.00
2019-04-30T18:26:15.441Z,5.78
2019-04-30T18:28:46.871Z,5.50
2019-04-30T18:31:18.688Z,5.65
2019-04-30T18:33:51.440Z,5.90
2019-04-30T18:36:22.355Z,6.00
2019-04-30T18:38:54.256Z,5.85
2019-04-30T18:41:25.517Z,6.22
2019-04-30T18:43:56.279Z,6.60
2019-04-30T18:46:29.199Z,6.47
2019-04-30T18:48:59.284Z,6.20
2019-04-30T18:51:39.058Z,6.75
2019-04-30T18:54:03.629Z,6.50
2019-04-30T18:56:34.544Z,6.30
2019-04-30T18:59:05.306Z,5.67
2019-04-30T19:01:36.027Z,6.28
2019-04-30T19:04:08.851Z,6.30
2019-04-30T19:06:39.667Z,6.00
2019-04-30T19:09:29.669Z,6.40
2019-04-30T19:12:02.197Z,6.62
2019-04-30T19:14:51.441Z,6.37
2019-04-30T19:17:27.250Z,6.62
2019-04-30T19:22:45.596Z,6.95
2019-04-30T19:25:16.438Z,6.67
2019-04-30T19:27:47.466Z,6.87
2019-04-30T19:30:19.382Z,6.97
2019-04-30T19:32:50.142Z,7.40
2019-04-30T19:35:20.804Z,7.40
2019-04-30T19:37:52.095Z,7.95
2019-04-30T19:40:23.247Z,7.60
2019-04-30T19:42:53.902Z,7.80
2019-04-30T19:45:24.622Z,7.62
2019-04-30T19:47:55.430Z,7.45
2019-04-30T19:50:26.702Z,8.35
2019-04-30T19:52:58.774Z,9.28
2019-04-30T19:55:29.617Z,9.48
2019-04-30T19:58:00.251Z,9.53
2019-04-30T20:00:31.057Z,10.75
2019-04-30T20:03:02.011Z,10.88
2019-04-30T20:05:33.440Z,12.28
2019-04-30T20:08:04.087Z,11.35
2019-04-30T20:10:35.551Z,11.15
2019-04-30T20:13:06.243Z,10.32
2019-04-30T20:15:39.155Z,10.88
2019-04-30T20:18:09.179Z,10.70
2019-04-30T20:20:41.778Z,10.50
2019-04-30T20:23:12.478Z,11.25
2019-04-30T20:25:44.642Z,10.50
2019-04-30T20:28:39.971Z,10.65
2019-04-30T20:31:09.046Z,9.63
2019-04-30T20:33:39.862Z,9.43
2019-04-30T20:36:11.235Z,10.13
2019-04-30T20:38:43.433Z,10.13
2019-04-30T20:41:15.235Z,10.08
2019-04-30T20:43:46.653Z,9.88
2019-04-30T20:46:31.132Z,9.45
2019-04-30T20:48:50.120Z,9.20
2019-04-30T20:51:20.791Z,9.20
2019-04-30T20:53:51.513Z,8.65
2019-04-30T20:56:22.310Z,9.08
2019-04-30T20:58:57.857Z,8.80
2019-04-30T21:01:25.694Z,9.48
2019-04-30T21:03:57.050Z,9.65
2019-04-30T21:06:30.313Z,8.93
2019-04-30T21:09:02.243Z,9.35
2019-04-30T21:11:33.702Z,9.53
2019-04-30T21:14:05.040Z,9.70
2019-04-30T21:16:35.712Z,8.58
2019-04-30T21:19:07.594Z,9.10
2019-04-30T21:21:38.718Z,8.73
2019-04-30T21:24:09.430Z,9.00
2019-04-30T21:26:41.451Z,8.68
2019-04-30T21:29:15.629Z,9.23
2019-04-30T21:31:54.741Z,9.38
2019-04-30T21:34:29.939Z,9.05
2019-04-30T21:37:01.433Z,9.10
2019-04-30T21:39:32.777Z,9.23
2019-04-30T21:42:04.211Z,8.73
2019-04-30T21:44:34.966Z,10.20
2019-04-30T21:47:05.706Z,8.73
2019-04-30T21:49:37.181Z,9.20
2019-04-30T21:52:08.766Z,8.43
2019-04-30T21:54:39.592Z,8.95
2019-04-30T21:57:10.284Z,9.25
2019-04-30T21:59:40.822Z,8.88
2019-04-30T22:02:12.543Z,8.88
2019-04-30T22:04:43.269Z,9.65
2019-04-30T22:07:13.819Z,9.63
2019-04-30T22:09:44.555Z,9.43
2019-04-30T22:12:19.030Z,9.15
2019-04-30T22:14:49.642Z,9.70
2019-04-30T22:17:20.442Z,9.50
2019-04-30T22:19:51.656Z,9.60
2019-04-30T22:22:22.429Z,9.70
2019-04-30T22:25:12.767Z,9.60
2019-04-30T22:27:45.479Z,9.00
2019-04-30T22:30:16.306Z,11.28
2019-04-30T22:32:47.655Z,16.95
2019-04-30T22:35:28.833Z,17.23
2019-04-30T22:38:09.998Z,17.40
2019-04-30T22:40:40.736Z,13.28
2019-04-30T22:43:11.774Z,14.65
2019-04-30T22:45:43.741Z,12.10
2019-04-30T22:48:14.424Z,11.05
2019-04-30T22:50:45.071Z,10.50
2019-04-30T22:53:15.816Z,11.08
2019-04-30T22:55:47.257Z,10.93
2019-04-30T22:58:18.568Z,11.40
2019-04-30T23:00:49.279Z,11.78
2019-04-30T23:03:21.442Z,15.25
2019-04-30T23:05:52.255Z,17.85
2019-04-30T23:08:22.991Z,18.52
2019-04-30T23:10:53.790Z,18.42
2019-04-30T23:13:24.475Z,18.32
2019-04-30T23:15:56.520Z,18.25
2019-04-30T23:18:27.255Z,17.48
2019-04-30T23:20:58.523Z,17.82
2019-04-30T23:23:29.278Z,17.70
2019-04-30T23:25:59.987Z,17.02
2019-04-30T23:28:31.079Z,15.75
2019-04-30T23:31:01.831Z,15.18
2019-04-30T23:33:32.733Z,14.30
2019-04-30T23:36:03.387Z,14.75
2019-04-30T23:38:34.114Z,13.75
2019-04-30T23:41:05.031Z,13.70
2019-04-30T23:43:35.786Z,13.20
2019-04-30T23:46:06.837Z,12.23
2019-04-30T23:48:37.691Z,12.03
2019-04-30T23:51:08.356Z,12.18
2019-04-30T23:53:38.943Z,11.35
2019-04-30T23:56:09.799Z,11.28
2019-04-30T23:58:40.439Z,10.90
